createdAt,value
2022-08-16T00:00:03.432Z,65.75
2022-08-16T00:03:07.166Z,65.67
2022-08-16T00:06:18.135Z,65.69
2022-08-16T00:09:22.817Z,65.91
2022-08-16T00:12:31.032Z,66.28
2022-08-16T00:15:51.455Z,66.58
2022-08-16T00:18:55.925Z,66.62
2022-08-16T00:22:06.851Z,66.61
2022-08-16T00:25:19.125Z,66.83
2022-08-16T00:28:24.454Z,66.81
2022-08-16T00:31:58.759Z,67.29
2022-08-16T00:35:00.471Z,67.36
2022-08-16T00:38:40.941Z,67.04
2022-08-16T00:41:32.767Z,67.21
2022-08-16T00:44:47.915Z,67.31
2022-08-16T00:47:52.306Z,67.64
2022-08-16T00:50:57.482Z,67.53
2022-08-16T00:54:01.389Z,67.86
2022-08-16T00:57:06.049Z,68.00
2022-08-16T01:00:12.774Z,67.59
2022-08-16T01:03:30.195Z,67.89
2022-08-16T01:06:48.827Z,68.07
2022-08-16T01:09:53.154Z,68.41
2022-08-16T01:12:58.021Z,68.21
2022-08-16T01:16:12.099Z,68.18
2022-08-16T01:19:26.926Z,68.29
2022-08-16T01:22:47.568Z,68.26
2022-08-16T01:26:00.185Z,68.39
2022-08-16T01:29:55.955Z,68.08
2022-08-16T01:33:02.173Z,68.25
2022-08-16T01:36:11.954Z,68.40
2022-08-16T01:39:18.541Z,68.37
2022-08-16T01:42:27.753Z,68.19
2022-08-16T01:45:40.610Z,68.02
2022-08-16T01:48:46.249Z,68.26
2022-08-16T01:51:55.271Z,68.82
2022-08-16T01:54:59.562Z,68.98
2022-08-16T01:58:05.727Z,69.20
2022-08-16T02:01:09.364Z,69.92
2022-08-16T02:04:13.778Z,70.07
2022-08-16T02:07:44.135Z,69.82
2022-08-16T02:10:48.451Z,70.13
2022-08-16T02:13:54.920Z,70.53
2022-08-16T02:17:02.452Z,70.83
2022-08-16T02:20:11.858Z,71.04
2022-08-16T02:23:17.127Z,71.35
2022-08-16T02:26:20.987Z,71.61
2022-08-16T02:29:32.108Z,71.94
2022-08-16T02:33:01.030Z,71.65
2022-08-16T02:36:01.434Z,72.11
2022-08-16T02:39:09.840Z,71.94
2022-08-16T02:42:13.684Z,72.40
2022-08-16T02:45:27.739Z,72.57
2022-08-16T02:48:38.649Z,72.48
2022-08-16T02:51:43.836Z,72.68
2022-08-16T02:54:47.730Z,72.73
2022-08-16T02:57:59.452Z,72.64
2022-08-16T03:01:04.509Z,72.62
2022-08-16T03:04:41.291Z,72.94
2022-08-16T03:07:37.099Z,73.18
2022-08-16T03:10:41.234Z,73.29
2022-08-16T03:13:45.672Z,73.84
2022-08-16T03:16:59.364Z,73.79
2022-08-16T03:20:06.631Z,74.19
2022-08-16T03:23:10.880Z,74.49
2022-08-16T03:26:19.602Z,74.70
2022-08-16T03:29:24.954Z,74.72
2022-08-16T03:32:30.667Z,75.55
2022-08-16T03:35:40.141Z,74.70
2022-08-16T03:38:44.114Z,75.05
2022-08-16T03:41:50.200Z,74.89
2022-08-16T03:45:02.944Z,75.01
2022-08-16T03:48:15.069Z,75.15
2022-08-16T03:51:23.753Z,75.27
2022-08-16T03:54:29.832Z,76.09
2022-08-16T03:57:36.386Z,76.19
2022-08-16T04:00:41.245Z,76.05
2022-08-16T04:03:46.690Z,76.39
2022-08-16T04:06:50.309Z,77.27
2022-08-16T04:09:56.212Z,77.28
2022-08-16T04:13:04.448Z,77.36
2022-08-16T04:16:08.857Z,77.33
2022-08-16T04:19:14.206Z,77.33
2022-08-16T04:22:19.827Z,77.35
2022-08-16T04:25:31.452Z,77.60
2022-08-16T04:28:56.686Z,77.33
2022-08-16T04:32:01.698Z,77.18
2022-08-16T04:35:16.208Z,77.62
2022-08-16T04:38:20.878Z,77.75
2022-08-16T04:41:32.408Z,77.86
2022-08-16T04:44:58.477Z,77.83
2022-08-16T04:48:06.403Z,78.17
2022-08-16T04:51:12.794Z,77.72
2022-08-16T04:54:19.419Z,77.65
2022-08-16T04:57:23.666Z,77.89
2022-08-16T05:00:35.262Z,77.55
2022-08-16T05:03:41.763Z,77.61
2022-08-16T05:06:50.593Z,76.71
2022-08-16T05:09:54.682Z,77.01
2022-08-16T05:12:59.076Z,77.65
2022-08-16T05:16:03.670Z,76.83
2022-08-16T05:19:11.510Z,76.60
2022-08-16T05:22:40.899Z,76.32
2022-08-16T05:25:49.024Z,76.41
2022-08-16T05:28:55.610Z,75.76
2022-08-16T05:31:59.511Z,75.82
2022-08-16T05:35:10.992Z,75.69
2022-08-16T05:38:32.250Z,75.64
2022-08-16T05:41:45.362Z,75.25
2022-08-16T05:44:49.634Z,75.15
2022-08-16T05:47:59.483Z,75.03
2022-08-16T05:51:05.091Z,74.06
2022-08-16T05:54:14.718Z,73.29
2022-08-16T05:57:19.278Z,72.94
2022-08-16T06:00:25.325Z,73.03
2022-08-16T06:03:29.659Z,73.04
2022-08-16T06:06:33.643Z,72.48
2022-08-16T06:09:44.419Z,72.31
2022-08-16T06:12:50.783Z,72.17
2022-08-16T06:15:59.742Z,71.36
2022-08-16T06:19:05.004Z,70.04
2022-08-16T06:22:08.708Z,69.55
2022-08-16T06:25:15.259Z,68.92
2022-08-16T06:28:35.032Z,69.06
2022-08-16T06:31:48.878Z,68.96
2022-08-16T06:34:56.499Z,69.07
2022-08-16T06:38:01.137Z,68.60
2022-08-16T06:41:13.488Z,68.01
2022-08-16T06:44:21.420Z,65.52
2022-08-16T06:47:25.546Z,63.37
2022-08-16T06:50:52.121Z,58.89
2022-08-16T06:53:56.047Z,57.37
2022-08-16T06:57:01.936Z,56.92
2022-08-16T07:00:13.102Z,56.29
2022-08-16T07:03:32.363Z,55.72
2022-08-16T07:06:36.634Z,56.36
2022-08-16T07:09:40.519Z,57.10
2022-08-16T07:13:04.224Z,55.52
2022-08-16T07:16:16.975Z,55.44
2022-08-16T07:20:01.541Z,54.73
2022-08-16T07:22:52.398Z,54.71
2022-08-16T07:25:57.346Z,53.02
2022-08-16T07:29:05.918Z,54.29
2022-08-16T07:32:11.847Z,53.75
2022-08-16T07:35:15.555Z,52.77
2022-08-16T07:38:20.097Z,51.06
2022-08-16T07:41:37.279Z,49.41
2022-08-16T07:44:50.322Z,50.29
2022-08-16T07:47:54.610Z,49.86
2022-08-16T07:51:00.329Z,49.22
2022-08-16T07:54:09.880Z,48.17
2022-08-16T07:57:13.878Z,48.48
2022-08-16T08:00:19.414Z,48.29
2022-08-16T08:03:23.668Z,48.76
2022-08-16T08:06:40.220Z,46.73
2022-08-16T08:09:44.198Z,46.05
2022-08-16T08:12:50.810Z,45.82
2022-08-16T08:16:00.026Z,45.24
2022-08-16T08:19:03.677Z,45.55
2022-08-16T08:22:08.689Z,45.69
2022-08-16T08:25:23.534Z,45.08
2022-08-16T08:28:27.149Z,44.18
2022-08-16T08:31:32.937Z,44.22
2022-08-16T08:34:37.742Z,44.75
2022-08-16T08:37:55.296Z,44.88
2022-08-16T08:41:00.019Z,46.34
2022-08-16T08:44:27.939Z,46.71
2022-08-16T08:47:30.817Z,46.47
2022-08-16T08:50:34.891Z,46.02
2022-08-16T08:53:42.366Z,44.63
2022-08-16T08:56:46.737Z,45.30
2022-08-16T08:59:51.426Z,45.65
2022-08-16T09:02:59.325Z,46.32
2022-08-16T09:06:09.483Z,47.29
2022-08-16T09:09:16.733Z,46.75
2022-08-16T09:12:35.478Z,46.32
2022-08-16T09:15:40.928Z,46.17
2022-08-16T09:18:50.632Z,45.45
2022-08-16T09:22:01.401Z,44.64
2022-08-16T09:25:11.032Z,43.74
2022-08-16T09:29:13.502Z,41.52
2022-08-16T09:31:41.020Z,41.34
2022-08-16T09:34:47.295Z,41.93
2022-08-16T09:38:00.909Z,41.91
2022-08-16T09:41:14.692Z,42.41
2022-08-16T09:45:12.407Z,42.86
2022-08-16T09:47:56.184Z,41.57
2022-08-16T09:51:03.272Z,40.58
2022-08-16T09:54:17.062Z,39.55
2022-08-16T09:57:24.382Z,41.43
2022-08-16T10:00:44.258Z,42.31
2022-08-16T10:04:01.548Z,43.38
2022-08-16T10:07:15.143Z,44.07
2022-08-16T10:10:30.592Z,44.27
2022-08-16T10:13:34.526Z,44.60
2022-08-16T10:16:39.230Z,45.46
2022-08-16T10:19:43.190Z,46.49
2022-08-16T10:22:50.555Z,47.01
2022-08-16T10:27:17.690Z,47.68
2022-08-16T10:29:26.096Z,47.67
2022-08-16T10:32:49.719Z,47.30
2022-08-16T10:35:56.723Z,46.37
2022-08-16T10:39:08.581Z,46.69
2022-08-16T10:42:14.310Z,46.70
2022-08-16T10:45:19.153Z,47.26
2022-08-16T10:48:28.117Z,47.09
2022-08-16T10:51:34.483Z,46.49
2022-08-16T10:54:59.215Z,45.52
2022-08-16T10:58:11.409Z,45.32
2022-08-16T11:01:39.899Z,45.53
2022-08-16T11:08:07.058Z,44.30
2022-08-16T11:11:19.115Z,44.55
2022-08-16T11:14:24.576Z,44.54
2022-08-16T11:17:28.525Z,43.60
2022-08-16T11:20:41.141Z,43.90
2022-08-16T11:23:58.257Z,43.51
2022-08-16T11:27:24.120Z,43.98
2022-08-16T11:30:38.746Z,43.00
2022-08-16T11:33:58.358Z,41.05
2022-08-16T11:37:02.367Z,39.27
2022-08-16T11:40:10.615Z,39.11
2022-08-16T11:43:17.746Z,37.44
2022-08-16T11:46:44.851Z,36.56
2022-08-16T11:49:49.971Z,36.66
2022-08-16T11:52:54.095Z,36.33
2022-08-16T11:55:58.915Z,35.96
2022-08-16T11:59:04.788Z,36.08
2022-08-16T12:02:32.441Z,35.59
2022-08-16T12:05:33.747Z,35.61
2022-08-16T12:08:37.542Z,35.92
2022-08-16T12:11:41.202Z,36.78
2022-08-16T12:14:50.558Z,37.02
2022-08-16T12:17:57.924Z,37.92
2022-08-16T12:21:02.338Z,38.39
2022-08-16T12:24:07.933Z,38.11
2022-08-16T12:27:11.747Z,36.56
2022-08-16T12:30:25.933Z,36.95
2022-08-16T12:33:32.480Z,36.21
2022-08-16T12:36:48.159Z,34.88
2022-08-16T12:39:52.303Z,35.02
2022-08-16T12:43:00.786Z,35.48
2022-08-16T12:46:06.036Z,34.60
2022-08-16T12:49:11.697Z,35.13
2022-08-16T12:52:33.967Z,34.79
2022-08-16T12:55:41.915Z,33.74
2022-08-16T12:58:50.263Z,33.61
2022-08-16T13:01:59.966Z,33.84
2022-08-16T13:05:03.966Z,32.07
2022-08-16T13:08:11.791Z,31.21
2022-08-16T13:11:31.282Z,31.05
2022-08-16T13:14:38.063Z,32.81
2022-08-16T13:17:43.536Z,32.05
2022-08-16T13:20:47.571Z,31.61
2022-08-16T13:23:55.189Z,31.45
2022-08-16T13:26:59.613Z,30.93
2022-08-16T13:30:21.780Z,31.19
2022-08-16T13:33:37.159Z,31.43
2022-08-16T13:36:49.757Z,31.91
2022-08-16T13:39:53.988Z,31.94
2022-08-16T13:42:57.920Z,32.42
2022-08-16T13:46:04.795Z,31.68
2022-08-16T13:49:11.727Z,31.66
2022-08-16T13:52:16.033Z,31.07
2022-08-16T13:55:20.533Z,32.03
2022-08-16T13:58:35.495Z,31.49
2022-08-16T14:01:41.429Z,31.29
2022-08-16T14:04:46.990Z,31.33
2022-08-16T14:08:06.558Z,30.92
2022-08-16T14:11:12.817Z,31.76
2022-08-16T14:14:18.114Z,32.12
2022-08-16T14:17:23.551Z,32.45
2022-08-16T14:20:29.490Z,32.18
2022-08-16T14:23:33.472Z,31.40
2022-08-16T14:26:38.230Z,31.10
2022-08-16T14:29:43.538Z,30.96
2022-08-16T14:32:49.758Z,31.38
2022-08-16T14:35:56.187Z,31.35
2022-08-16T14:39:00.947Z,30.98
2022-08-16T14:42:11.222Z,30.81
2022-08-16T14:45:20.714Z,31.25
2022-08-16T14:48:25.791Z,31.94
2022-08-16T14:51:32.267Z,31.06
2022-08-16T14:54:36.510Z,31.08
2022-08-16T14:57:40.879Z,31.17
2022-08-16T15:00:44.959Z,30.97
2022-08-16T15:03:50.149Z,30.59
2022-08-16T15:07:00.740Z,30.97
2022-08-16T15:10:06.981Z,31.12
2022-08-16T15:13:11.460Z,31.41
2022-08-16T15:16:17.188Z,31.31
2022-08-16T15:19:22.807Z,31.02
2022-08-16T15:22:33.669Z,30.72
2022-08-16T15:25:41.330Z,31.37
2022-08-16T15:28:45.934Z,30.68
2022-08-16T15:32:00.877Z,30.68
2022-08-16T15:35:06.769Z,31.08
2022-08-16T15:38:54.716Z,31.38
2022-08-16T15:42:06.956Z,31.49
2022-08-16T15:45:35.546Z,31.97
2022-08-16T15:48:40.325Z,31.42
2022-08-16T15:51:46.338Z,31.54
2022-08-16T15:54:53.022Z,31.40
2022-08-16T15:57:59.490Z,31.85
2022-08-16T16:01:03.253Z,31.26
2022-08-16T16:04:08.428Z,31.76
2022-08-16T16:07:12.440Z,32.09
2022-08-16T16:10:19.082Z,31.37
2022-08-16T16:13:24.420Z,31.68
2022-08-16T16:16:28.452Z,31.52
2022-08-16T16:19:32.095Z,31.75
2022-08-16T16:22:35.638Z,32.48
2022-08-16T16:25:44.663Z,32.09
2022-08-16T16:29:08.015Z,32.53
2022-08-16T16:32:14.144Z,32.83
2022-08-16T16:35:20.004Z,33.60
2022-08-16T16:38:32.275Z,34.42
2022-08-16T16:41:39.004Z,33.99
2022-08-16T16:44:50.796Z,35.11
2022-08-16T16:47:55.728Z,34.13
2022-08-16T16:51:11.518Z,35.23
2022-08-16T16:54:27.567Z,35.67
2022-08-16T16:57:50.638Z,35.42
2022-08-16T17:00:58.803Z,35.88
2022-08-16T17:04:13.389Z,36.33
2022-08-16T17:07:24.237Z,36.16
2022-08-16T17:10:46.606Z,35.92
2022-08-16T17:13:54.542Z,36.84
2022-08-16T17:16:58.238Z,37.14
2022-08-16T17:20:02.837Z,37.17
2022-08-16T17:23:07.171Z,37.42
2022-08-16T17:26:12.732Z,36.61
2022-08-16T17:29:17.886Z,38.12
2022-08-16T17:32:33.817Z,37.70
2022-08-16T17:35:54.977Z,38.16
2022-08-16T17:39:00.740Z,38.66
2022-08-16T17:42:12.972Z,38.38
2022-08-16T17:45:18.078Z,39.21
2022-08-16T17:48:22.508Z,39.68
2022-08-16T17:51:27.342Z,41.05
2022-08-16T17:54:31.176Z,41.83
2022-08-16T17:57:35.282Z,42.73
2022-08-16T18:00:41.990Z,43.09
2022-08-16T18:04:07.079Z,43.34
2022-08-16T18:07:10.223Z,44.13
2022-08-16T18:10:14.589Z,44.16
2022-08-16T18:13:36.935Z,44.68
2022-08-16T18:16:43.513Z,44.92
2022-08-16T18:19:47.094Z,45.51
2022-08-16T18:22:50.027Z,45.73
2022-08-16T18:25:57.206Z,45.95
2022-08-16T18:29:01.114Z,46.30
2022-08-16T18:32:07.447Z,46.88
2022-08-16T18:35:11.379Z,47.02
2022-08-16T18:38:15.051Z,47.38
2022-08-16T18:41:20.229Z,47.43
2022-08-16T18:44:29.251Z,47.75
2022-08-16T18:47:37.398Z,47.48
2022-08-16T18:51:04.215Z,47.81
2022-08-16T18:54:06.530Z,48.49
2022-08-16T18:57:10.304Z,48.89
2022-08-16T19:00:16.192Z,49.23
2022-08-16T19:03:23.047Z,49.20
2022-08-16T19:06:26.947Z,50.06
2022-08-16T19:09:30.864Z,50.02
2022-08-16T19:12:38.603Z,49.85
2022-08-16T19:15:46.380Z,49.85
2022-08-16T19:18:51.847Z,50.11
2022-08-16T19:21:55.597Z,50.75
2022-08-16T19:25:00.344Z,50.65
2022-08-16T19:28:04.662Z,50.73
2022-08-16T19:31:12.395Z,51.71
2022-08-16T19:34:18.231Z,51.32
2022-08-16T19:37:22.212Z,51.33
2022-08-16T19:40:37.522Z,51.67
2022-08-16T19:43:42.242Z,51.77
2022-08-16T19:46:46.687Z,51.50
2022-08-16T19:49:52.255Z,51.74
2022-08-16T19:53:01.914Z,51.84
2022-08-16T19:56:16.897Z,51.96
2022-08-16T19:59:39.768Z,52.41
2022-08-16T20:02:51.063Z,52.56
2022-08-16T20:05:56.836Z,53.37
2022-08-16T20:09:00.616Z,53.44
2022-08-16T20:12:07.499Z,54.04
2022-08-16T20:15:16.168Z,54.32
2022-08-16T20:18:24.583Z,54.55
2022-08-16T20:21:31.545Z,54.05
2022-08-16T20:24:36.341Z,54.96
2022-08-16T20:27:43.906Z,54.92
2022-08-16T20:30:48.211Z,54.81
2022-08-16T20:33:52.342Z,55.34
2022-08-16T20:36:57.464Z,54.87
2022-08-16T20:40:18.024Z,55.26
2022-08-16T20:43:24.627Z,55.63
2022-08-16T20:46:28.568Z,55.75
2022-08-16T20:49:32.465Z,55.79
2022-08-16T20:52:38.139Z,55.98
2022-08-16T20:55:44.560Z,56.43
2022-08-16T20:58:48.472Z,56.22
2022-08-16T21:01:52.208Z,56.63
2022-08-16T21:04:56.775Z,56.98
2022-08-16T21:08:04.754Z,57.58
2022-08-16T21:11:27.727Z,57.43
2022-08-16T21:14:34.040Z,57.87
2022-08-16T21:17:37.697Z,57.89
2022-08-16T21:20:44.839Z,57.90
2022-08-16T21:23:50.258Z,58.85
2022-08-16T21:26:56.127Z,58.58
2022-08-16T21:30:00.172Z,58.62
2022-08-16T21:33:05.612Z,59.06
2022-08-16T21:36:10.279Z,59.23
2022-08-16T21:39:15.756Z,59.47
2022-08-16T21:42:19.594Z,59.04
2022-08-16T21:45:23.227Z,59.18
2022-08-16T21:48:33.432Z,59.48
2022-08-16T21:51:39.142Z,59.36
2022-08-16T21:54:44.520Z,59.65
2022-08-16T21:57:48.542Z,59.58
2022-08-16T22:00:52.718Z,59.89
2022-08-16T22:04:09.692Z,59.69
2022-08-16T22:07:21.188Z,59.97
2022-08-16T22:11:04.782Z,59.94
2022-08-16T22:13:58.940Z,60.11
2022-08-16T22:17:03.323Z,60.20
2022-08-16T22:20:09.219Z,60.51
2022-08-16T22:23:15.399Z,60.53
2022-08-16T22:26:20.751Z,60.72
2022-08-16T22:29:34.674Z,61.05
2022-08-16T22:32:42.094Z,61.39
2022-08-16T22:35:47.816Z,61.54
2022-08-16T22:38:56.460Z,62.11
2022-08-16T22:42:08.591Z,61.94
2022-08-16T22:45:13.668Z,61.97
2022-08-16T22:48:18.315Z,62.11
2022-08-16T22:51:24.670Z,62.16
2022-08-16T22:54:41.323Z,62.46
2022-08-16T22:57:53.614Z,62.63
2022-08-16T23:00:57.484Z,62.71
2022-08-16T23:04:01.230Z,62.92
2022-08-16T23:07:05.971Z,63.00
2022-08-16T23:10:10.200Z,63.21
2022-08-16T23:13:17.150Z,63.76
2022-08-16T23:16:21.775Z,63.83
2022-08-16T23:19:26.627Z,64.22
2022-08-16T23:23:19.691Z,64.04
2022-08-16T23:26:46.987Z,64.21
2022-08-16T23:29:31.829Z,64.76
2022-08-16T23:32:36.503Z,64.81
2022-08-16T23:35:45.275Z,64.77
2022-08-16T23:38:49.852Z,65.07
2022-08-16T23:41:53.784Z,65.16
2022-08-16T23:44:59.538Z,65.38
2022-08-16T23:48:04.717Z,65.49
2022-08-16T23:51:10.945Z,65.47
2022-08-16T23:54:14.607Z,65.69
2022-08-16T23:57:18.218Z,65.98
